CGMPW CYQB-CYQM
Flight info
| Callsign | CGMPW |
|---|---|
| Flight time | 0h 55m |
| Altitude | 31000 |
| Route | PINTE |
| Aircraft | PC24/L-SBDGIRWY/LB2 |
Departure
| Time | 2026-04-29 23:46 |
|---|---|
| Airport | Quebec Jean Lesage International Airport (CYQB) |
Arrival
| Time | 2026-04-30 00:42 |
|---|---|
| Airport | Greater Moncton Roméo LeBlanc International Airport (CYQM) |
| Time | Latitude | Longitude | Altitude | Speed | Heading |
|---|---|---|---|---|---|
| 2026-04-29 23:35 | 46.79748 | -71.37873 | 235 ft | 0 kts | 310° |
| 2026-04-29 23:42 | 46.79748 | -71.37878 | 239 ft | 2 kts | 270° |
| 2026-04-29 23:43 | 46.79720 | -71.37930 | 235 ft | 12 kts | 230° |
| 2026-04-29 23:43 | 46.79663 | -71.38018 | 238 ft | 0 kts | 248° |
| 2026-04-29 23:43 | 46.79662 | -71.38027 | 237 ft | 4 kts | 258° |
| 2026-04-29 23:44 | 46.79688 | -71.38095 | 235 ft | 10 kts | 334° |
| 2026-04-29 23:44 | 46.79746 | -71.38063 | 235 ft | 9 kts | 26° |
| 2026-04-29 23:44 | 46.79812 | -71.38047 | 237 ft | 15 kts | 359° |
| 2026-04-29 23:44 | 46.79872 | -71.38047 | 235 ft | 0 kts | 357° |
| 2026-04-29 23:45 | 46.79897 | -71.38048 | 235 ft | 11 kts | 357° |
| 2026-04-29 23:45 | 46.79954 | -71.38138 | 236 ft | 14 kts | 258° |
| 2026-04-29 23:45 | 46.79856 | -71.38302 | 237 ft | 33 kts | 225° |
| 2026-04-29 23:46 | 46.79492 | -71.38829 | 240 ft | 119 kts | 224° |
| 2026-04-29 23:46 | 46.78727 | -71.39928 | 419 ft | 177 kts | 226° |
| 2026-04-29 23:46 | 46.77877 | -71.41222 | 1703 ft | 177 kts | 225° |
| 2026-04-29 23:46 | 46.76962 | -71.42623 | 2591 ft | 214 kts | 225° |
| 2026-04-29 23:47 | 46.75835 | -71.44430 | 3041 ft | 266 kts | 225° |
| 2026-04-29 23:47 | 46.74566 | -71.46492 | 3463 ft | 270 kts | 226° |
| 2026-04-29 23:47 | 46.73283 | -71.48614 | 3858 ft | 280 kts | 226° |
| 2026-04-29 23:47 | 46.71980 | -71.50783 | 4246 ft | 284 kts | 226° |
| 2026-04-29 23:48 | 46.70694 | -71.52942 | 4633 ft | 286 kts | 226° |
| 2026-04-29 23:48 | 46.69391 | -71.55151 | 4969 ft | 289 kts | 226° |
| 2026-04-29 23:48 | 46.68071 | -71.57384 | 4997 ft | 289 kts | 226° |
| 2026-04-29 23:48 | 46.66759 | -71.59603 | 5085 ft | 286 kts | 226° |
| 2026-04-29 23:49 | 46.65338 | -71.61624 | 5611 ft | 288 kts | 210° |
| 2026-04-29 23:49 | 46.63472 | -71.62630 | 6141 ft | 289 kts | 189° |
| 2026-04-29 23:49 | 46.61479 | -71.62364 | 6820 ft | 291 kts | 166° |
| 2026-04-29 23:49 | 46.59659 | -71.61083 | 7546 ft | 299 kts | 145° |
| 2026-04-29 23:50 | 46.58237 | -71.58796 | 8302 ft | 311 kts | 123° |
| 2026-04-29 23:50 | 46.57515 | -71.55791 | 9068 ft | 322 kts | 101° |
| 2026-04-29 23:50 | 46.57018 | -71.49171 | 10580 ft | 333 kts | 98° |
| 2026-04-29 23:51 | 46.56767 | -71.45852 | 11306 ft | 338 kts | 99° |
| 2026-04-29 23:51 | 46.56482 | -71.42424 | 12058 ft | 344 kts | 100° |
| 2026-04-29 23:51 | 46.56200 | -71.38950 | 12835 ft | 349 kts | 100° |
| 2026-04-29 23:51 | 46.55915 | -71.35419 | 13626 ft | 353 kts | 101° |
| 2026-04-29 23:52 | 46.55627 | -71.31843 | 14341 ft | 359 kts | 101° |
| 2026-04-29 23:52 | 46.55332 | -71.28240 | 15067 ft | 359 kts | 101° |
| 2026-04-29 23:52 | 46.55041 | -71.24676 | 15802 ft | 361 kts | 101° |
| 2026-04-29 23:52 | 46.54740 | -71.21037 | 16572 ft | 363 kts | 101° |
| 2026-04-29 23:53 | 46.54440 | -71.17378 | 17350 ft | 366 kts | 102° |
| 2026-04-29 23:53 | 46.54133 | -71.13693 | 18150 ft | 369 kts | 102° |
| 2026-04-29 23:53 | 46.53832 | -71.10066 | 18823 ft | 372 kts | 101° |
| 2026-04-29 23:53 | 46.53520 | -71.06342 | 19541 ft | 375 kts | 101° |
| 2026-04-29 23:54 | 46.53204 | -71.02555 | 20280 ft | 378 kts | 101° |
| 2026-04-29 23:54 | 46.52883 | -70.98762 | 21037 ft | 379 kts | 100° |
| 2026-04-29 23:54 | 46.52562 | -70.94946 | 21812 ft | 381 kts | 100° |
| 2026-04-29 23:54 | 46.52241 | -70.91175 | 22592 ft | 381 kts | 100° |
| 2026-04-29 23:55 | 46.51916 | -70.87354 | 23397 ft | 381 kts | 100° |
| 2026-04-29 23:55 | 46.51589 | -70.83536 | 24095 ft | 380 kts | 99° |
| 2026-04-29 23:55 | 46.51262 | -70.79726 | 24798 ft | 379 kts | 99° |
| 2026-04-29 23:55 | 46.50935 | -70.75929 | 25536 ft | 378 kts | 99° |
| 2026-04-29 23:56 | 46.50608 | -70.72155 | 26273 ft | 375 kts | 99° |
| 2026-04-29 23:56 | 46.50282 | -70.68402 | 27025 ft | 373 kts | 99° |
| 2026-04-29 23:56 | 46.49958 | -70.64690 | 27793 ft | 369 kts | 98° |
| 2026-04-29 23:56 | 46.49667 | -70.61369 | 28525 ft | 366 kts | 98° |
| 2026-04-29 23:57 | 46.49347 | -70.57723 | 29337 ft | 361 kts | 98° |
| 2026-04-29 23:57 | 46.49032 | -70.54165 | 30134 ft | 356 kts | 98° |
| 2026-04-29 23:57 | 46.48716 | -70.50601 | 30712 ft | 355 kts | 98° |
| 2026-04-29 23:57 | 46.48396 | -70.47001 | 30935 ft | 367 kts | 98° |
| 2026-04-29 23:58 | 46.48064 | -70.43289 | 30943 ft | 384 kts | 98° |
| 2026-04-29 23:58 | 46.47714 | -70.39372 | 30941 ft | 399 kts | 98° |
| 2026-04-29 23:58 | 46.47348 | -70.35297 | 30940 ft | 413 kts | 98° |
| 2026-04-29 23:58 | 46.46969 | -70.31098 | 30936 ft | 425 kts | 98° |
| 2026-04-29 23:59 | 46.46579 | -70.26798 | 30950 ft | 435 kts | 98° |
| 2026-04-29 23:59 | 46.45908 | -70.19421 | 30953 ft | 450 kts | 98° |
| 2026-04-30 00:00 | 46.45067 | -70.10267 | 30951 ft | 463 kts | 98° |
| 2026-04-30 00:00 | 46.44469 | -70.00957 | 30957 ft | 466 kts | 91° |
| 2026-04-30 00:01 | 46.44305 | -69.91546 | 30969 ft | 467 kts | 91° |
| 2026-04-30 00:01 | 46.44071 | -69.82184 | 30969 ft | 467 kts | 91° |
| 2026-04-30 00:02 | 46.43860 | -69.72766 | 30968 ft | 466 kts | 91° |
| 2026-04-30 00:02 | 46.43627 | -69.63375 | 30984 ft | 466 kts | 91° |
| 2026-04-30 00:03 | 46.43395 | -69.53994 | 30983 ft | 466 kts | 91° |
| 2026-04-30 00:03 | 46.43150 | -69.44622 | 31002 ft | 463 kts | 91° |
| 2026-04-30 00:04 | 46.42903 | -69.35272 | 31000 ft | 464 kts | 91° |
| 2026-04-30 00:04 | 46.42645 | -69.25968 | 31000 ft | 464 kts | 91° |
| 2026-04-30 00:05 | 46.42380 | -69.16609 | 31000 ft | 464 kts | 91° |
| 2026-04-30 00:05 | 46.42108 | -69.07255 | 31011 ft | 464 kts | 91° |
| 2026-04-30 00:06 | 46.41827 | -68.97910 | 31012 ft | 464 kts | 91° |
| 2026-04-30 00:06 | 46.41542 | -68.88623 | 31015 ft | 463 kts | 91° |
| 2026-04-30 00:07 | 46.41245 | -68.79269 | 31028 ft | 466 kts | 91° |
| 2026-04-30 00:07 | 46.40942 | -68.69879 | 31030 ft | 465 kts | 91° |
| 2026-04-30 00:08 | 46.40630 | -68.60524 | 31038 ft | 462 kts | 91° |
| 2026-04-30 00:08 | 46.40313 | -68.51231 | 31036 ft | 462 kts | 91° |
| 2026-04-30 00:09 | 46.39989 | -68.41945 | 31061 ft | 461 kts | 91° |
| 2026-04-30 00:09 | 46.39659 | -68.32670 | 31068 ft | 461 kts | 91° |
| 2026-04-30 00:10 | 46.39322 | -68.23453 | 31093 ft | 462 kts | 91° |
| 2026-04-30 00:10 | 46.38976 | -68.14183 | 31099 ft | 458 kts | 91° |
| 2026-04-30 00:11 | 46.38624 | -68.04940 | 31090 ft | 459 kts | 91° |
| 2026-04-30 00:11 | 46.38264 | -67.95709 | 31067 ft | 458 kts | 92° |
| 2026-04-30 00:12 | 46.37897 | -67.86480 | 31061 ft | 458 kts | 92° |
| 2026-04-30 00:12 | 46.37527 | -67.77333 | 31060 ft | 455 kts | 92° |
| 2026-04-30 00:13 | 46.37148 | -67.68205 | 31058 ft | 455 kts | 92° |
| 2026-04-30 00:13 | 46.36764 | -67.59049 | 31061 ft | 455 kts | 92° |
| 2026-04-30 00:14 | 46.36367 | -67.49861 | 31067 ft | 458 kts | 92° |
| 2026-04-30 00:14 | 46.35964 | -67.40685 | 31080 ft | 455 kts | 92° |
| 2026-04-30 00:15 | 46.35564 | -67.31650 | 31087 ft | 450 kts | 93° |
| 2026-04-30 00:15 | 46.35154 | -67.22617 | 31091 ft | 450 kts | 94° |
| 2026-04-30 00:15 | 46.34945 | -67.18092 | 30909 ft | 453 kts | 94° |
| 2026-04-30 00:16 | 46.34736 | -67.13582 | 30719 ft | 445 kts | 94° |
| 2026-04-30 00:16 | 46.34527 | -67.09087 | 30531 ft | 449 kts | 94° |
| 2026-04-30 00:16 | 46.34313 | -67.04575 | 30354 ft | 449 kts | 94° |
| 2026-04-30 00:16 | 46.34098 | -67.00063 | 30175 ft | 450 kts | 94° |
| 2026-04-30 00:17 | 46.33883 | -66.95542 | 29979 ft | 450 kts | 94° |
| 2026-04-30 00:17 | 46.33665 | -66.91049 | 29781 ft | 445 kts | 94° |
| 2026-04-30 00:17 | 46.33447 | -66.86568 | 29585 ft | 448 kts | 94° |
| 2026-04-30 00:17 | 46.33226 | -66.82080 | 29396 ft | 448 kts | 94° |
| 2026-04-30 00:18 | 46.33007 | -66.77644 | 29217 ft | 448 kts | 94° |
| 2026-04-30 00:18 | 46.32782 | -66.73149 | 29033 ft | 448 kts | 94° |
| 2026-04-30 00:18 | 46.32555 | -66.68646 | 28852 ft | 448 kts | 94° |
| 2026-04-30 00:18 | 46.32327 | -66.64149 | 28675 ft | 449 kts | 94° |
| 2026-04-30 00:19 | 46.32097 | -66.59645 | 28507 ft | 448 kts | 94° |
| 2026-04-30 00:19 | 46.31870 | -66.55142 | 28313 ft | 449 kts | 94° |
| 2026-04-30 00:19 | 46.31635 | -66.50662 | 27756 ft | 439 kts | 95° |
| 2026-04-30 00:19 | 46.31408 | -66.46376 | 27200 ft | 416 kts | 95° |
| 2026-04-30 00:20 | 46.31190 | -66.42247 | 26661 ft | 411 kts | 95° |
| 2026-04-30 00:20 | 46.30972 | -66.38116 | 26033 ft | 413 kts | 94° |
| 2026-04-30 00:20 | 46.30752 | -66.33989 | 25447 ft | 408 kts | 95° |
| 2026-04-30 00:20 | 46.30535 | -66.29972 | 24916 ft | 404 kts | 94° |
| 2026-04-30 00:21 | 46.30317 | -66.25935 | 24339 ft | 403 kts | 94° |
| 2026-04-30 00:21 | 46.30097 | -66.21912 | 23813 ft | 396 kts | 94° |
| 2026-04-30 00:21 | 46.29881 | -66.17951 | 23297 ft | 395 kts | 94° |
| 2026-04-30 00:21 | 46.29662 | -66.13991 | 22774 ft | 392 kts | 94° |
| 2026-04-30 00:22 | 46.29445 | -66.10069 | 22255 ft | 388 kts | 94° |
| 2026-04-30 00:22 | 46.29228 | -66.06191 | 21745 ft | 385 kts | 94° |
| 2026-04-30 00:22 | 46.29012 | -66.02339 | 21240 ft | 383 kts | 94° |
| 2026-04-30 00:22 | 46.28795 | -65.98518 | 20737 ft | 380 kts | 94° |
| 2026-04-30 00:23 | 46.28579 | -65.94723 | 20240 ft | 378 kts | 95° |
| 2026-04-30 00:23 | 46.28368 | -65.91045 | 19756 ft | 362 kts | 95° |
| 2026-04-30 00:23 | 46.28167 | -65.87521 | 19244 ft | 343 kts | 95° |
| 2026-04-30 00:23 | 46.27971 | -65.84143 | 18795 ft | 327 kts | 95° |
| 2026-04-30 00:24 | 46.27784 | -65.80912 | 18191 ft | 318 kts | 95° |
| 2026-04-30 00:24 | 46.27603 | -65.77828 | 17953 ft | 302 kts | 95° |
| 2026-04-30 00:24 | 46.27425 | -65.74790 | 17582 ft | 306 kts | 95° |
| 2026-04-30 00:24 | 46.27243 | -65.71704 | 17180 ft | 309 kts | 95° |
| 2026-04-30 00:25 | 46.27061 | -65.68609 | 16774 ft | 307 kts | 96° |
| 2026-04-30 00:25 | 46.26880 | -65.65578 | 16374 ft | 304 kts | 96° |
| 2026-04-30 00:25 | 46.26698 | -65.62547 | 15976 ft | 302 kts | 96° |
| 2026-04-30 00:25 | 46.26518 | -65.59539 | 15553 ft | 300 kts | 96° |
| 2026-04-30 00:26 | 46.26337 | -65.56534 | 15110 ft | 296 kts | 96° |
| 2026-04-30 00:26 | 46.26159 | -65.53597 | 14788 ft | 292 kts | 96° |
| 2026-04-30 00:26 | 46.25978 | -65.50662 | 14411 ft | 293 kts | 96° |
| 2026-04-30 00:26 | 46.25800 | -65.47720 | 14026 ft | 293 kts | 96° |
| 2026-04-30 00:27 | 46.25622 | -65.44789 | 13612 ft | 291 kts | 96° |
| 2026-04-30 00:27 | 46.25443 | -65.41886 | 13223 ft | 288 kts | 97° |
| 2026-04-30 00:27 | 46.25265 | -65.39007 | 12844 ft | 286 kts | 97° |
| 2026-04-30 00:27 | 46.25086 | -65.36147 | 12468 ft | 286 kts | 97° |
| 2026-04-30 00:28 | 46.24910 | -65.33306 | 12070 ft | 275 kts | 97° |
| 2026-04-30 00:28 | 46.24754 | -65.30720 | 11705 ft | 244 kts | 98° |
| 2026-04-30 00:28 | 46.24603 | -65.28357 | 11399 ft | 229 kts | 98° |
| 2026-04-30 00:28 | 46.24462 | -65.26145 | 11127 ft | 218 kts | 99° |
| 2026-04-30 00:29 | 46.24318 | -65.23917 | 10859 ft | 233 kts | 99° |
| 2026-04-30 00:29 | 46.24166 | -65.21562 | 10574 ft | 238 kts | 98° |
| 2026-04-30 00:29 | 46.24017 | -65.19180 | 10264 ft | 235 kts | 99° |
| 2026-04-30 00:29 | 46.23869 | -65.16825 | 9930 ft | 234 kts | 99° |
| 2026-04-30 00:30 | 46.23720 | -65.14503 | 9602 ft | 231 kts | 99° |
| 2026-04-30 00:30 | 46.23572 | -65.12209 | 9295 ft | 228 kts | 99° |
| 2026-04-30 00:30 | 46.23426 | -65.09934 | 8994 ft | 226 kts | 99° |
| 2026-04-30 00:30 | 46.23280 | -65.07686 | 8698 ft | 224 kts | 99° |
| 2026-04-30 00:31 | 46.23136 | -65.05452 | 8402 ft | 220 kts | 99° |
| 2026-04-30 00:31 | 46.22997 | -65.03301 | 8111 ft | 211 kts | 99° |
| 2026-04-30 00:31 | 46.22863 | -65.01246 | 7831 ft | 201 kts | 100° |
| 2026-04-30 00:31 | 46.22735 | -64.99260 | 7567 ft | 195 kts | 100° |
| 2026-04-30 00:32 | 46.22605 | -64.97359 | 7380 ft | 188 kts | 100° |
| 2026-04-30 00:32 | 46.22489 | -64.95563 | 7105 ft | 174 kts | 100° |
| 2026-04-30 00:32 | 46.22375 | -64.93841 | 6867 ft | 171 kts | 101° |
| 2026-04-30 00:32 | 46.22264 | -64.92150 | 6642 ft | 167 kts | 101° |
| 2026-04-30 00:33 | 46.22153 | -64.90489 | 6414 ft | 165 kts | 101° |
| 2026-04-30 00:33 | 46.22044 | -64.88832 | 6193 ft | 165 kts | 101° |
| 2026-04-30 00:33 | 46.21934 | -64.87186 | 5979 ft | 165 kts | 101° |
| 2026-04-30 00:33 | 46.21825 | -64.85559 | 5764 ft | 165 kts | 101° |
| 2026-04-30 00:34 | 46.21716 | -64.83919 | 5544 ft | 163 kts | 101° |
| 2026-04-30 00:34 | 46.21607 | -64.82293 | 5328 ft | 162 kts | 100° |
| 2026-04-30 00:34 | 46.21499 | -64.80678 | 5114 ft | 160 kts | 100° |
| 2026-04-30 00:34 | 46.21583 | -64.79062 | 4900 ft | 164 kts | 79° |
| 2026-04-30 00:35 | 46.21845 | -64.77530 | 4678 ft | 148 kts | 83° |
| 2026-04-30 00:35 | 46.22053 | -64.76164 | 4469 ft | 134 kts | 82° |
| 2026-04-30 00:35 | 46.22250 | -64.74870 | 4299 ft | 129 kts | 83° |
| 2026-04-30 00:35 | 46.22450 | -64.73583 | 4152 ft | 132 kts | 83° |
| 2026-04-30 00:36 | 46.22647 | -64.72315 | 3984 ft | 130 kts | 83° |
| 2026-04-30 00:36 | 46.22845 | -64.71035 | 3812 ft | 130 kts | 83° |
| 2026-04-30 00:36 | 46.23045 | -64.69758 | 3643 ft | 130 kts | 83° |
| 2026-04-30 00:36 | 46.23241 | -64.68493 | 3467 ft | 129 kts | 83° |
| 2026-04-30 00:37 | 46.23437 | -64.67235 | 3292 ft | 128 kts | 83° |
| 2026-04-30 00:37 | 46.23526 | -64.65985 | 3121 ft | 123 kts | 98° |
| 2026-04-30 00:37 | 46.23436 | -64.64768 | 2958 ft | 123 kts | 108° |
| 2026-04-30 00:37 | 46.23175 | -64.63597 | 2805 ft | 120 kts | 120° |
| 2026-04-30 00:38 | 46.22776 | -64.62576 | 2627 ft | 114 kts | 130° |
| 2026-04-30 00:38 | 46.22271 | -64.61714 | 2481 ft | 111 kts | 141° |
| 2026-04-30 00:38 | 46.21679 | -64.61019 | 2341 ft | 111 kts | 150° |
| 2026-04-30 00:38 | 46.21003 | -64.60488 | 2197 ft | 111 kts | 160° |
| 2026-04-30 00:39 | 46.20270 | -64.60148 | 2053 ft | 110 kts | 168° |
| 2026-04-30 00:39 | 46.19513 | -64.60006 | 1901 ft | 110 kts | 178° |
| 2026-04-30 00:39 | 46.18746 | -64.60066 | 1749 ft | 111 kts | 188° |
| 2026-04-30 00:39 | 46.17997 | -64.60332 | 1598 ft | 112 kts | 196° |
| 2026-04-30 00:40 | 46.17298 | -64.60794 | 1449 ft | 109 kts | 205° |
| 2026-04-30 00:40 | 46.16581 | -64.61521 | 1377 ft | 143 kts | 218° |
| 2026-04-30 00:40 | 46.15934 | -64.62416 | 1320 ft | 122 kts | 217° |
| 2026-04-30 00:40 | 46.15264 | -64.63277 | 948 ft | 132 kts | 218° |
| 2026-04-30 00:41 | 46.14598 | -64.64156 | 745 ft | 130 kts | 219° |
| 2026-04-30 00:41 | 46.13934 | -64.65034 | 566 ft | 129 kts | 218° |
| 2026-04-30 00:41 | 46.13270 | -64.65906 | 410 ft | 129 kts | 219° |
| 2026-04-30 00:41 | 46.12600 | -64.66769 | 268 ft | 122 kts | 219° |
| 2026-04-30 00:42 | 46.12047 | -64.67513 | 198 ft | 84 kts | 221° |
| 2026-04-30 00:42 | 46.11860 | -64.67752 | 197 ft | 11 kts | 220° |
| 2026-04-30 00:42 | 46.11781 | -64.67850 | 195 ft | 19 kts | 220° |
| 2026-04-30 00:42 | 46.11663 | -64.68006 | 199 ft | 27 kts | 224° |
| 2026-04-30 00:43 | 46.11514 | -64.68209 | 197 ft | 32 kts | 223° |
| 2026-04-30 00:43 | 46.11348 | -64.68434 | 198 ft | 31 kts | 219° |
| 2026-04-30 00:43 | 46.11159 | -64.68486 | 197 ft | 26 kts | 178° |
| 2026-04-30 00:43 | 46.10991 | -64.68474 | 199 ft | 24 kts | 176° |
| 2026-04-30 00:44 | 46.10830 | -64.68466 | 203 ft | 22 kts | 177° |
| 2026-04-30 00:44 | 46.10681 | -64.68445 | 207 ft | 20 kts | 154° |
| 2026-04-30 00:44 | 46.10584 | -64.68309 | 205 ft | 18 kts | 131° |
| 2026-04-30 00:44 | 46.10531 | -64.68176 | 208 ft | 9 kts | 102° |
| 2026-04-30 00:45 | 46.10531 | -64.68173 | 208 ft | 0 kts | 101° |